sensor_id;sensor_type;location;lat;lon;timestamp;P1;durP1;ratioP1;P2;durP2;ratioP2
71368;SDS011;59175;53.214;5.728;2022-09-09T00:00:14;10.23;;;2.60;;
71368;SDS011;59175;53.214;5.728;2022-09-09T00:02:45;6.10;;;2.42;;
71368;SDS011;59175;53.214;5.728;2022-09-09T00:05:18;10.93;;;3.63;;
71368;SDS011;59175;53.214;5.728;2022-09-09T00:07:48;7.72;;;2.80;;
71368;SDS011;59175;53.214;5.728;2022-09-09T00:20:00;7.43;;;2.78;;
71368;SDS011;59175;53.214;5.728;2022-09-09T00:22:27;9.07;;;3.22;;
71368;SDS011;59175;53.214;5.728;2022-09-09T00:24:57;5.80;;;2.35;;
71368;SDS011;59175;53.214;5.728;2022-09-09T00:27:38;9.63;;;2.92;;
71368;SDS011;59175;53.214;5.728;2022-09-09T00:30:15;7.27;;;3.03;;
71368;SDS011;59175;53.214;5.728;2022-09-09T00:32:44;7.40;;;2.72;;
71368;SDS011;59175;53.214;5.728;2022-09-09T00:37:34;7.00;;;2.50;;
71368;SDS011;59175;53.214;5.728;2022-09-09T00:40:00;6.57;;;2.07;;
71368;SDS011;59175;53.214;5.728;2022-09-09T00:42:45;6.70;;;2.85;;
71368;SDS011;59175;53.214;5.728;2022-09-09T00:47:46;10.95;;;2.72;;
71368;SDS011;59175;53.214;5.728;2022-09-09T00:55:28;6.57;;;2.35;;
71368;SDS011;59175;53.214;5.728;2022-09-09T00:57:58;6.40;;;2.58;;
71368;SDS011;59175;53.214;5.728;2022-09-09T01:00:27;8.33;;;2.10;;
71368;SDS011;59175;53.214;5.728;2022-09-09T01:02:57;9.55;;;2.90;;
71368;SDS011;59175;53.214;5.728;2022-09-09T01:05:30;9.50;;;2.55;;
71368;SDS011;59175;53.214;5.728;2022-09-09T01:08:00;7.10;;;2.30;;
71368;SDS011;59175;53.214;5.728;2022-09-09T01:10:37;10.73;;;2.67;;
71368;SDS011;59175;53.214;5.728;2022-09-09T01:13:08;8.02;;;2.95;;
71368;SDS011;59175;53.214;5.728;2022-09-09T01:15:37;12.10;;;2.50;;
71368;SDS011;59175;53.214;5.728;2022-09-09T01:18:13;7.70;;;2.65;;
71368;SDS011;59175;53.214;5.728;2022-09-09T01:26:19;5.90;;;2.17;;
71368;SDS011;59175;53.214;5.728;2022-09-09T01:28:47;9.43;;;2.30;;
71368;SDS011;59175;53.214;5.728;2022-09-09T01:31:24;11.40;;;2.72;;
71368;SDS011;59175;53.214;5.728;2022-09-09T01:33:53;8.00;;;2.42;;
71368;SDS011;59175;53.214;5.728;2022-09-09T01:36:24;11.70;;;2.77;;
71368;SDS011;59175;53.214;5.728;2022-09-09T01:38:50;7.88;;;2.40;;
71368;SDS011;59175;53.214;5.728;2022-09-09T01:41:15;7.25;;;2.03;;
71368;SDS011;59175;53.214;5.728;2022-09-09T01:43:40;6.10;;;2.60;;
71368;SDS011;59175;53.214;5.728;2022-09-09T01:46:06;5.78;;;2.30;;
71368;SDS011;59175;53.214;5.728;2022-09-09T01:48:31;6.77;;;1.87;;
71368;SDS011;59175;53.214;5.728;2022-09-09T01:50:56;7.23;;;2.63;;
71368;SDS011;59175;53.214;5.728;2022-09-09T01:53:22;9.47;;;3.00;;
71368;SDS011;59175;53.214;5.728;2022-09-09T02:00:57;6.05;;;2.40;;
71368;SDS011;59175;53.214;5.728;2022-09-09T02:03:26;8.30;;;2.57;;
71368;SDS011;59175;53.214;5.728;2022-09-09T02:06:02;10.30;;;2.00;;
71368;SDS011;59175;53.214;5.728;2022-09-09T02:09:04;6.85;;;2.67;;
71368;SDS011;59175;53.214;5.728;2022-09-09T02:11:23;8.88;;;2.28;;
71368;SDS011;59175;53.214;5.728;2022-09-09T02:13:48;7.75;;;2.47;;
71368;SDS011;59175;53.214;5.728;2022-09-09T02:21:21;9.02;;;2.10;;
71368;SDS011;59175;53.214;5.728;2022-09-09T02:23:47;7.70;;;2.15;;
71368;SDS011;59175;53.214;5.728;2022-09-09T02:26:13;6.05;;;2.75;;
71368;SDS011;59175;53.214;5.728;2022-09-09T02:28:44;9.25;;;2.78;;
71368;SDS011;59175;53.214;5.728;2022-09-09T02:31:10;6.60;;;2.60;;
71368;SDS011;59175;53.214;5.728;2022-09-09T02:33:41;6.87;;;2.23;;
71368;SDS011;59175;53.214;5.728;2022-09-09T02:36:08;7.50;;;2.30;;
71368;SDS011;59175;53.214;5.728;2022-09-09T02:38:36;7.63;;;2.70;;
71368;SDS011;59175;53.214;5.728;2022-09-09T02:41:02;6.55;;;2.17;;
71368;SDS011;59175;53.214;5.728;2022-09-09T02:43:32;7.53;;;3.13;;
71368;SDS011;59175;53.214;5.728;2022-09-09T02:46:01;8.25;;;2.85;;
71368;SDS011;59175;53.214;5.728;2022-09-09T02:48:34;10.18;;;2.60;;
71368;SDS011;59175;53.214;5.728;2022-09-09T02:53:32;8.27;;;2.03;;
71368;SDS011;59175;53.214;5.728;2022-09-09T02:56:04;7.73;;;2.17;;
71368;SDS011;59175;53.214;5.728;2022-09-09T02:58:29;10.10;;;2.50;;
71368;SDS011;59175;53.214;5.728;2022-09-09T03:00:54;9.03;;;3.43;;
71368;SDS011;59175;53.214;5.728;2022-09-09T03:03:22;8.38;;;2.80;;
71368;SDS011;59175;53.214;5.728;2022-09-09T03:05:47;6.60;;;2.43;;
71368;SDS011;59175;53.214;5.728;2022-09-09T03:08:12;7.83;;;3.00;;
71368;SDS011;59175;53.214;5.728;2022-09-09T03:10:38;6.23;;;2.17;;
71368;SDS011;59175;53.214;5.728;2022-09-09T03:13:03;6.60;;;2.47;;
71368;SDS011;59175;53.214;5.728;2022-09-09T03:15:30;9.85;;;4.65;;
71368;SDS011;59175;53.214;5.728;2022-09-09T03:17:56;7.80;;;2.13;;
71368;SDS011;59175;53.214;5.728;2022-09-09T03:20:22;10.80;;;2.72;;
71368;SDS011;59175;53.214;5.728;2022-09-09T03:22:47;8.10;;;2.35;;
71368;SDS011;59175;53.214;5.728;2022-09-09T03:25:13;8.47;;;2.47;;
71368;SDS011;59175;53.214;5.728;2022-09-09T03:27:38;9.38;;;2.70;;
71368;SDS011;59175;53.214;5.728;2022-09-09T03:30:03;5.80;;;2.00;;
71368;SDS011;59175;53.214;5.728;2022-09-09T03:32:29;6.78;;;2.55;;
71368;SDS011;59175;53.214;5.728;2022-09-09T03:34:54;8.37;;;3.50;;
71368;SDS011;59175;53.214;5.728;2022-09-09T03:37:19;8.47;;;2.67;;
71368;SDS011;59175;53.214;5.728;2022-09-09T03:39:44;6.97;;;2.73;;
71368;SDS011;59175;53.214;5.728;2022-09-09T03:42:13;6.77;;;2.37;;
71368;SDS011;59175;53.214;5.728;2022-09-09T03:44:39;8.57;;;2.85;;
71368;SDS011;59175;53.214;5.728;2022-09-09T03:47:04;10.13;;;3.20;;
71368;SDS011;59175;53.214;5.728;2022-09-09T03:49:31;6.72;;;2.30;;
71368;SDS011;59175;53.214;5.728;2022-09-09T03:51:56;6.37;;;2.47;;
71368;SDS011;59175;53.214;5.728;2022-09-09T03:54:23;6.10;;;2.60;;
71368;SDS011;59175;53.214;5.728;2022-09-09T03:56:48;8.00;;;2.88;;
71368;SDS011;59175;53.214;5.728;2022-09-09T03:59:13;13.23;;;3.27;;
71368;SDS011;59175;53.214;5.728;2022-09-09T04:01:39;7.17;;;2.67;;
71368;SDS011;59175;53.214;5.728;2022-09-09T04:04:04;6.50;;;2.67;;
71368;SDS011;59175;53.214;5.728;2022-09-09T04:06:30;8.63;;;3.05;;
71368;SDS011;59175;53.214;5.728;2022-09-09T04:08:55;6.33;;;2.07;;
71368;SDS011;59175;53.214;5.728;2022-09-09T04:11:20;5.47;;;2.25;;
71368;SDS011;59175;53.214;5.728;2022-09-09T04:13:46;11.00;;;2.80;;
71368;SDS011;59175;53.214;5.728;2022-09-09T04:16:11;4.90;;;1.60;;
71368;SDS011;59175;53.214;5.728;2022-09-09T04:18:38;5.73;;;1.60;;
71368;SDS011;59175;53.214;5.728;2022-09-09T04:21:03;6.70;;;1.90;;
71368;SDS011;59175;53.214;5.728;2022-09-09T04:23:31;8.63;;;2.60;;
71368;SDS011;59175;53.214;5.728;2022-09-09T04:25:59;5.80;;;2.17;;
71368;SDS011;59175;53.214;5.728;2022-09-09T04:28:25;9.43;;;2.00;;
71368;SDS011;59175;53.214;5.728;2022-09-09T04:30:51;5.28;;;1.67;;
71368;SDS011;59175;53.214;5.728;2022-09-09T04:33:17;9.80;;;2.10;;
71368;SDS011;59175;53.214;5.728;2022-09-09T04:35:46;5.67;;;1.63;;
71368;SDS011;59175;53.214;5.728;2022-09-09T04:38:12;6.70;;;2.20;;
71368;SDS011;59175;53.214;5.728;2022-09-09T04:40:37;4.60;;;1.47;;
71368;SDS011;59175;53.214;5.728;2022-09-09T04:43:07;8.25;;;2.22;;
71368;SDS011;59175;53.214;5.728;2022-09-09T04:45:33;5.53;;;1.83;;
71368;SDS011;59175;53.214;5.728;2022-09-09T04:47:58;7.07;;;1.40;;
71368;SDS011;59175;53.214;5.728;2022-09-09T04:50:24;8.13;;;1.75;;
71368;SDS011;59175;53.214;5.728;2022-09-09T04:52:49;6.43;;;2.10;;
71368;SDS011;59175;53.214;5.728;2022-09-09T04:55:15;7.03;;;2.10;;
71368;SDS011;59175;53.214;5.728;2022-09-09T04:57:40;5.93;;;1.40;;
71368;SDS011;59175;53.214;5.728;2022-09-09T05:00:06;6.30;;;1.70;;
71368;SDS011;59175;53.214;5.728;2022-09-09T05:02:32;10.43;;;1.58;;
71368;SDS011;59175;53.214;5.728;2022-09-09T05:04:57;7.67;;;1.67;;
71368;SDS011;59175;53.214;5.728;2022-09-09T05:07:23;6.20;;;1.70;;
71368;SDS011;59175;53.214;5.728;2022-09-09T05:09:48;5.30;;;1.50;;
71368;SDS011;59175;53.214;5.728;2022-09-09T05:12:14;5.30;;;1.33;;
71368;SDS011;59175;53.214;5.728;2022-09-09T05:14:43;7.37;;;1.77;;
71368;SDS011;59175;53.214;5.728;2022-09-09T05:17:08;6.60;;;2.00;;
71368;SDS011;59175;53.214;5.728;2022-09-09T05:19:33;4.80;;;1.63;;
71368;SDS011;59175;53.214;5.728;2022-09-09T05:21:58;5.50;;;1.60;;
71368;SDS011;59175;53.214;5.728;2022-09-09T05:24:24;8.37;;;2.63;;
71368;SDS011;59175;53.214;5.728;2022-09-09T05:26:49;5.80;;;1.47;;
71368;SDS011;59175;53.214;5.728;2022-09-09T05:29:14;5.87;;;1.90;;
71368;SDS011;59175;53.214;5.728;2022-09-09T05:31:39;6.07;;;1.73;;
71368;SDS011;59175;53.214;5.728;2022-09-09T05:34:06;7.32;;;1.85;;
71368;SDS011;59175;53.214;5.728;2022-09-09T05:36:31;6.00;;;1.23;;
71368;SDS011;59175;53.214;5.728;2022-09-09T05:38:56;14.27;;;1.47;;
71368;SDS011;59175;53.214;5.728;2022-09-09T05:41:21;7.17;;;2.30;;
71368;SDS011;59175;53.214;5.728;2022-09-09T05:43:48;8.55;;;1.80;;
71368;SDS011;59175;53.214;5.728;2022-09-09T05:46:15;6.20;;;2.10;;
71368;SDS011;59175;53.214;5.728;2022-09-09T05:48:41;7.45;;;1.95;;
71368;SDS011;59175;53.214;5.728;2022-09-09T05:51:08;6.18;;;2.28;;
71368;SDS011;59175;53.214;5.728;2022-09-09T05:53:34;7.10;;;1.80;;
71368;SDS011;59175;53.214;5.728;2022-09-09T05:56:00;11.77;;;2.13;;
71368;SDS011;59175;53.214;5.728;2022-09-09T05:58:26;7.28;;;2.30;;
71368;SDS011;59175;53.214;5.728;2022-09-09T06:00:51;7.80;;;2.63;;
71368;SDS011;59175;53.214;5.728;2022-09-09T06:03:17;7.93;;;2.70;;
71368;SDS011;59175;53.214;5.728;2022-09-09T06:05:42;7.20;;;2.10;;
71368;SDS011;59175;53.214;5.728;2022-09-09T06:08:07;8.97;;;2.20;;
71368;SDS011;59175;53.214;5.728;2022-09-09T06:10:32;6.67;;;2.50;;
71368;SDS011;59175;53.214;5.728;2022-09-09T06:12:59;10.50;;;2.70;;
71368;SDS011;59175;53.214;5.728;2022-09-09T06:15:24;8.00;;;2.37;;
71368;SDS011;59175;53.214;5.728;2022-09-09T06:17:53;6.43;;;2.30;;
71368;SDS011;59175;53.214;5.728;2022-09-09T06:20:19;7.03;;;2.13;;
71368;SDS011;59175;53.214;5.728;2022-09-09T06:22:45;11.32;;;3.72;;
71368;SDS011;59175;53.214;5.728;2022-09-09T06:25:11;8.52;;;2.65;;
71368;SDS011;59175;53.214;5.728;2022-09-09T06:27:37;9.40;;;2.25;;
71368;SDS011;59175;53.214;5.728;2022-09-09T06:30:02;6.93;;;2.50;;
71368;SDS011;59175;53.214;5.728;2022-09-09T06:32:28;7.23;;;2.80;;
71368;SDS011;59175;53.214;5.728;2022-09-09T06:34:53;9.97;;;3.83;;
71368;SDS011;59175;53.214;5.728;2022-09-09T06:37:19;11.23;;;2.88;;
71368;SDS011;59175;53.214;5.728;2022-09-09T06:39:45;7.33;;;2.63;;
71368;SDS011;59175;53.214;5.728;2022-09-09T06:42:10;7.63;;;2.83;;
71368;SDS011;59175;53.214;5.728;2022-09-09T06:44:36;7.70;;;2.42;;
71368;SDS011;59175;53.214;5.728;2022-09-09T06:47:01;10.63;;;2.50;;
71368;SDS011;59175;53.214;5.728;2022-09-09T06:49:26;7.70;;;2.27;;
71368;SDS011;59175;53.214;5.728;2022-09-09T06:51:51;6.50;;;1.90;;
71368;SDS011;59175;53.214;5.728;2022-09-09T06:54:17;11.47;;;2.20;;
71368;SDS011;59175;53.214;5.728;2022-09-09T06:56:42;9.87;;;2.77;;
71368;SDS011;59175;53.214;5.728;2022-09-09T06:59:08;11.52;;;2.78;;
71368;SDS011;59175;53.214;5.728;2022-09-09T07:01:38;6.77;;;2.27;;
71368;SDS011;59175;53.214;5.728;2022-09-09T07:04:05;6.80;;;2.53;;
71368;SDS011;59175;53.214;5.728;2022-09-09T07:06:40;6.82;;;2.33;;
71368;SDS011;59175;53.214;5.728;2022-09-09T07:09:06;5.75;;;1.80;;
71368;SDS011;59175;53.214;5.728;2022-09-09T07:11:33;7.60;;;2.25;;
71368;SDS011;59175;53.214;5.728;2022-09-09T07:13:59;5.75;;;2.35;;
71368;SDS011;59175;53.214;5.728;2022-09-09T07:16:25;8.05;;;2.38;;
71368;SDS011;59175;53.214;5.728;2022-09-09T07:18:51;8.27;;;3.13;;
71368;SDS011;59175;53.214;5.728;2022-09-09T07:21:16;7.28;;;2.17;;
71368;SDS011;59175;53.214;5.728;2022-09-09T07:23:42;9.83;;;3.67;;
71368;SDS011;59175;53.214;5.728;2022-09-09T07:26:17;7.63;;;2.50;;
71368;SDS011;59175;53.214;5.728;2022-09-09T07:28:44;8.05;;;2.22;;
71368;SDS011;59175;53.214;5.728;2022-09-09T07:31:13;8.05;;;1.95;;
71368;SDS011;59175;53.214;5.728;2022-09-09T07:33:38;5.97;;;2.33;;
71368;SDS011;59175;53.214;5.728;2022-09-09T07:36:07;5.93;;;1.88;;
71368;SDS011;59175;53.214;5.728;2022-09-09T07:41:07;6.60;;;2.20;;
71368;SDS011;59175;53.214;5.728;2022-09-09T07:43:36;7.05;;;2.50;;
71368;SDS011;59175;53.214;5.728;2022-09-09T07:46:02;7.17;;;2.20;;
71368;SDS011;59175;53.214;5.728;2022-09-09T07:48:27;9.60;;;2.13;;
71368;SDS011;59175;53.214;5.728;2022-09-09T07:51:01;7.97;;;2.47;;
71368;SDS011;59175;53.214;5.728;2022-09-09T07:53:27;8.75;;;2.70;;
71368;SDS011;59175;53.214;5.728;2022-09-09T07:55:53;6.50;;;1.67;;
71368;SDS011;59175;53.214;5.728;2022-09-09T07:58:20;7.47;;;2.35;;
71368;SDS011;59175;53.214;5.728;2022-09-09T08:00:45;6.63;;;2.43;;
71368;SDS011;59175;53.214;5.728;2022-09-09T08:03:10;6.23;;;2.00;;
71368;SDS011;59175;53.214;5.728;2022-09-09T08:05:35;9.50;;;2.50;;
71368;SDS011;59175;53.214;5.728;2022-09-09T08:08:01;6.65;;;1.98;;
71368;SDS011;59175;53.214;5.728;2022-09-09T08:10:28;10.63;;;2.65;;
71368;SDS011;59175;53.214;5.728;2022-09-09T08:12:53;7.15;;;2.10;;
71368;SDS011;59175;53.214;5.728;2022-09-09T08:15:20;5.65;;;2.03;;
71368;SDS011;59175;53.214;5.728;2022-09-09T08:17:45;8.57;;;2.10;;
71368;SDS011;59175;53.214;5.728;2022-09-09T08:20:10;7.43;;;2.40;;
71368;SDS011;59175;53.214;5.728;2022-09-09T08:22:36;7.13;;;1.95;;
71368;SDS011;59175;53.214;5.728;2022-09-09T08:25:02;4.97;;;1.47;;
71368;SDS011;59175;53.214;5.728;2022-09-09T08:27:31;7.95;;;1.67;;
71368;SDS011;59175;53.214;5.728;2022-09-09T08:29:57;7.20;;;1.92;;
71368;SDS011;59175;53.214;5.728;2022-09-09T08:32:22;12.30;;;2.37;;
71368;SDS011;59175;53.214;5.728;2022-09-09T08:34:47;8.30;;;1.90;;
71368;SDS011;59175;53.214;5.728;2022-09-09T08:37:14;6.88;;;1.90;;
71368;SDS011;59175;53.214;5.728;2022-09-09T08:39:39;6.97;;;2.57;;
71368;SDS011;59175;53.214;5.728;2022-09-09T08:47:14;5.75;;;1.83;;
71368;SDS011;59175;53.214;5.728;2022-09-09T08:52:16;8.77;;;2.10;;
71368;SDS011;59175;53.214;5.728;2022-09-09T08:54:43;7.78;;;2.45;;
71368;SDS011;59175;53.214;5.728;2022-09-09T08:57:11;7.47;;;2.37;;
71368;SDS011;59175;53.214;5.728;2022-09-09T08:59:38;5.53;;;1.50;;
71368;SDS011;59175;53.214;5.728;2022-09-09T09:02:07;8.10;;;2.07;;
71368;SDS011;59175;53.214;5.728;2022-09-09T09:12:19;8.33;;;2.50;;
71368;SDS011;59175;53.214;5.728;2022-09-09T09:14:45;5.90;;;1.58;;
71368;SDS011;59175;53.214;5.728;2022-09-09T09:19:40;7.20;;;1.77;;
71368;SDS011;59175;53.214;5.728;2022-09-09T09:22:10;8.13;;;2.28;;
71368;SDS011;59175;53.214;5.728;2022-09-09T09:24:56;6.30;;;2.22;;
71368;SDS011;59175;53.214;5.728;2022-09-09T09:27:31;6.90;;;2.28;;
71368;SDS011;59175;53.214;5.728;2022-09-09T09:29:58;9.60;;;1.88;;
71368;SDS011;59175;53.214;5.728;2022-09-09T09:32:24;7.10;;;2.00;;
71368;SDS011;59175;53.214;5.728;2022-09-09T09:34:51;5.97;;;1.70;;
71368;SDS011;59175;53.214;5.728;2022-09-09T09:37:23;6.70;;;1.73;;
71368;SDS011;59175;53.214;5.728;2022-09-09T09:39:52;9.68;;;2.17;;
71368;SDS011;59175;53.214;5.728;2022-09-09T09:42:18;4.13;;;1.33;;
71368;SDS011;59175;53.214;5.728;2022-09-09T09:44:44;9.55;;;2.72;;
71368;SDS011;59175;53.214;5.728;2022-09-09T09:49:38;9.03;;;1.37;;
71368;SDS011;59175;53.214;5.728;2022-09-09T09:52:03;6.73;;;1.33;;
71368;SDS011;59175;53.214;5.728;2022-09-09T09:54:30;9.20;;;2.28;;
71368;SDS011;59175;53.214;5.728;2022-09-09T09:56:56;7.93;;;1.50;;
71368;SDS011;59175;53.214;5.728;2022-09-09T09:59:34;3.22;;;0.88;;
71368;SDS011;59175;53.214;5.728;2022-09-09T10:02:13;6.57;;;1.58;;
71368;SDS011;59175;53.214;5.728;2022-09-09T10:04:38;7.50;;;1.45;;
71368;SDS011;59175;53.214;5.728;2022-09-09T10:07:10;6.82;;;1.42;;
71368;SDS011;59175;53.214;5.728;2022-09-09T10:09:36;3.90;;;1.30;;
71368;SDS011;59175;53.214;5.728;2022-09-09T10:15:29;3.95;;;1.23;;
71368;SDS011;59175;53.214;5.728;2022-09-09T10:17:54;4.30;;;0.95;;
71368;SDS011;59175;53.214;5.728;2022-09-09T10:22:52;3.22;;;0.82;;
71368;SDS011;59175;53.214;5.728;2022-09-09T10:28:15;6.68;;;1.63;;
71368;SDS011;59175;53.214;5.728;2022-09-09T10:30:59;5.50;;;1.20;;
71368;SDS011;59175;53.214;5.728;2022-09-09T10:38:41;5.15;;;1.48;;
71368;SDS011;59175;53.214;5.728;2022-09-09T10:51:38;5.70;;;1.15;;
71368;SDS011;59175;53.214;5.728;2022-09-09T10:56:40;2.80;;;0.70;;
71368;SDS011;59175;53.214;5.728;2022-09-09T10:59:11;4.30;;;0.70;;
71368;SDS011;59175;53.214;5.728;2022-09-09T11:01:40;3.00;;;0.70;;
71368;SDS011;59175;53.214;5.728;2022-09-09T11:04:11;3.97;;;0.52;;
71368;SDS011;59175;53.214;5.728;2022-09-09T11:06:40;4.78;;;0.90;;
71368;SDS011;59175;53.214;5.728;2022-09-09T11:09:07;4.95;;;0.63;;
71368;SDS011;59175;53.214;5.728;2022-09-09T11:14:04;5.80;;;1.02;;
71368;SDS011;59175;53.214;5.728;2022-09-09T11:16:35;2.63;;;0.70;;
71368;SDS011;59175;53.214;5.728;2022-09-09T11:19:07;6.32;;;0.90;;
71368;SDS011;59175;53.214;5.728;2022-09-09T11:21:37;3.95;;;0.70;;
71368;SDS011;59175;53.214;5.728;2022-09-09T11:24:05;6.88;;;1.00;;
71368;SDS011;59175;53.214;5.728;2022-09-09T11:26:39;4.00;;;0.75;;
71368;SDS011;59175;53.214;5.728;2022-09-09T11:41:35;5.50;;;0.80;;
71368;SDS011;59175;53.214;5.728;2022-09-09T11:44:08;2.60;;;0.57;;
71368;SDS011;59175;53.214;5.728;2022-09-09T11:46:36;3.20;;;0.65;;
71368;SDS011;59175;53.214;5.728;2022-09-09T11:49:06;6.43;;;0.77;;
71368;SDS011;59175;53.214;5.728;2022-09-09T11:51:32;3.78;;;0.60;;
71368;SDS011;59175;53.214;5.728;2022-09-09T11:56:44;2.00;;;0.60;;
71368;SDS011;59175;53.214;5.728;2022-09-09T11:59:23;2.92;;;0.70;;
71368;SDS011;59175;53.214;5.728;2022-09-09T12:01:50;4.55;;;0.50;;
71368;SDS011;59175;53.214;5.728;2022-09-09T12:04:37;7.68;;;1.08;;
71368;SDS011;59175;53.214;5.728;2022-09-09T12:07:21;2.20;;;0.52;;
71368;SDS011;59175;53.214;5.728;2022-09-09T12:09:50;5.22;;;0.60;;
71368;SDS011;59175;53.214;5.728;2022-09-09T12:12:23;1.77;;;0.50;;
71368;SDS011;59175;53.214;5.728;2022-09-09T12:17:27;4.57;;;0.70;;
71368;SDS011;59175;53.214;5.728;2022-09-09T12:20:00;3.88;;;0.60;;
71368;SDS011;59175;53.214;5.728;2022-09-09T12:28:03;4.00;;;0.70;;
71368;SDS011;59175;53.214;5.728;2022-09-09T12:30:39;4.95;;;0.77;;
71368;SDS011;59175;53.214;5.728;2022-09-09T12:33:12;2.10;;;0.70;;
71368;SDS011;59175;53.214;5.728;2022-09-09T12:35:38;5.03;;;0.60;;
71368;SDS011;59175;53.214;5.728;2022-09-09T12:38:04;3.45;;;0.77;;
71368;SDS011;59175;53.214;5.728;2022-09-09T12:40:32;5.80;;;0.73;;
71368;SDS011;59175;53.214;5.728;2022-09-09T12:43:00;3.25;;;0.88;;
71368;SDS011;59175;53.214;5.728;2022-09-09T12:45:26;5.95;;;0.63;;
71368;SDS011;59175;53.214;5.728;2022-09-09T12:50:20;3.10;;;0.90;;
71368;SDS011;59175;53.214;5.728;2022-09-09T12:52:46;6.72;;;0.90;;
71368;SDS011;59175;53.214;5.728;2022-09-09T12:55:16;5.32;;;0.98;;
71368;SDS011;59175;53.214;5.728;2022-09-09T12:57:41;3.53;;;0.75;;
71368;SDS011;59175;53.214;5.728;2022-09-09T13:00:12;3.38;;;0.73;;
71368;SDS011;59175;53.214;5.728;2022-09-09T13:02:45;4.93;;;0.70;;
71368;SDS011;59175;53.214;5.728;2022-09-09T13:05:17;2.33;;;0.60;;
71368;SDS011;59175;53.214;5.728;2022-09-09T13:07:43;3.45;;;1.02;;
71368;SDS011;59175;53.214;5.728;2022-09-09T13:10:12;4.10;;;0.77;;
71368;SDS011;59175;53.214;5.728;2022-09-09T13:12:38;3.55;;;0.70;;
71368;SDS011;59175;53.214;5.728;2022-09-09T13:15:04;2.90;;;0.60;;
71368;SDS011;59175;53.214;5.728;2022-09-09T13:17:29;2.83;;;0.57;;
71368;SDS011;59175;53.214;5.728;2022-09-09T13:19:54;3.20;;;0.90;;
71368;SDS011;59175;53.214;5.728;2022-09-09T13:22:29;5.40;;;0.90;;
71368;SDS011;59175;53.214;5.728;2022-09-09T13:27:40;3.22;;;0.60;;
71368;SDS011;59175;53.214;5.728;2022-09-09T13:32:47;1.90;;;0.50;;
71368;SDS011;59175;53.214;5.728;2022-09-09T13:35:23;1.70;;;0.53;;
71368;SDS011;59175;53.214;5.728;2022-09-09T13:37:48;3.23;;;0.80;;
71368;SDS011;59175;53.214;5.728;2022-09-09T13:40:17;4.07;;;0.77;;
71368;SDS011;59175;53.214;5.728;2022-09-09T13:42:42;1.98;;;0.35;;
71368;SDS011;59175;53.214;5.728;2022-09-09T13:45:19;2.55;;;0.60;;
71368;SDS011;59175;53.214;5.728;2022-09-09T13:47:48;6.07;;;0.82;;
71368;SDS011;59175;53.214;5.728;2022-09-09T13:50:18;5.10;;;0.57;;
71368;SDS011;59175;53.214;5.728;2022-09-09T13:52:44;5.23;;;1.20;;
71368;SDS011;59175;53.214;5.728;2022-09-09T13:55:09;3.55;;;0.50;;
71368;SDS011;59175;53.214;5.728;2022-09-09T13:57:35;2.50;;;0.60;;
71368;SDS011;59175;53.214;5.728;2022-09-09T14:04:51;3.73;;;0.97;;
71368;SDS011;59175;53.214;5.728;2022-09-09T14:07:19;4.25;;;1.05;;
71368;SDS011;59175;53.214;5.728;2022-09-09T14:09:45;4.00;;;0.77;;
71368;SDS011;59175;53.214;5.728;2022-09-09T14:12:14;6.53;;;1.55;;
71368;SDS011;59175;53.214;5.728;2022-09-09T14:14:40;2.63;;;0.70;;
71368;SDS011;59175;53.214;5.728;2022-09-09T14:17:07;3.08;;;1.10;;
71368;SDS011;59175;53.214;5.728;2022-09-09T14:19:32;6.30;;;1.00;;
71368;SDS011;59175;53.214;5.728;2022-09-09T14:21:57;4.20;;;0.80;;
71368;SDS011;59175;53.214;5.728;2022-09-09T14:24:22;4.27;;;0.90;;
71368;SDS011;59175;53.214;5.728;2022-09-09T14:26:48;3.33;;;0.80;;
71368;SDS011;59175;53.214;5.728;2022-09-09T14:29:13;5.47;;;1.13;;
71368;SDS011;59175;53.214;5.728;2022-09-09T14:31:38;2.33;;;0.80;;
71368;SDS011;59175;53.214;5.728;2022-09-09T14:34:04;5.13;;;0.97;;
71368;SDS011;59175;53.214;5.728;2022-09-09T14:36:29;2.90;;;0.70;;
71368;SDS011;59175;53.214;5.728;2022-09-09T14:38:55;2.00;;;0.60;;
71368;SDS011;59175;53.214;5.728;2022-09-09T14:41:20;2.30;;;0.70;;
71368;SDS011;59175;53.214;5.728;2022-09-09T14:43:47;3.50;;;0.80;;
71368;SDS011;59175;53.214;5.728;2022-09-09T14:46:16;4.07;;;0.60;;
71368;SDS011;59175;53.214;5.728;2022-09-09T14:48:41;3.88;;;1.10;;
71368;SDS011;59175;53.214;5.728;2022-09-09T14:51:08;6.40;;;1.13;;
71368;SDS011;59175;53.214;5.728;2022-09-09T14:53:33;3.78;;;0.90;;
71368;SDS011;59175;53.214;5.728;2022-09-09T14:56:05;4.07;;;0.87;;
71368;SDS011;59175;53.214;5.728;2022-09-09T14:58:31;2.95;;;1.00;;
71368;SDS011;59175;53.214;5.728;2022-09-09T15:01:01;7.47;;;0.93;;
71368;SDS011;59175;53.214;5.728;2022-09-09T15:03:26;2.97;;;0.80;;
71368;SDS011;59175;53.214;5.728;2022-09-09T15:05:52;2.70;;;0.70;;
71368;SDS011;59175;53.214;5.728;2022-09-09T15:08:17;3.67;;;1.03;;
71368;SDS011;59175;53.214;5.728;2022-09-09T15:10:42;4.23;;;1.10;;
71368;SDS011;59175;53.214;5.728;2022-09-09T15:13:09;11.15;;;0.80;;
71368;SDS011;59175;53.214;5.728;2022-09-09T15:15:35;3.27;;;0.90;;
71368;SDS011;59175;53.214;5.728;2022-09-09T15:18:00;2.00;;;0.50;;
71368;SDS011;59175;53.214;5.728;2022-09-09T15:20:25;4.23;;;0.83;;
71368;SDS011;59175;53.214;5.728;2022-09-09T15:22:50;1.90;;;0.53;;
71368;SDS011;59175;53.214;5.728;2022-09-09T15:25:17;5.38;;;0.90;;
71368;SDS011;59175;53.214;5.728;2022-09-09T15:27:43;5.03;;;0.90;;
71368;SDS011;59175;53.214;5.728;2022-09-09T15:30:09;3.63;;;0.85;;
71368;SDS011;59175;53.214;5.728;2022-09-09T15:32:34;4.00;;;0.90;;
71368;SDS011;59175;53.214;5.728;2022-09-09T15:35:00;4.83;;;1.10;;
71368;SDS011;59175;53.214;5.728;2022-09-09T15:37:26;3.15;;;0.80;;
71368;SDS011;59175;53.214;5.728;2022-09-09T15:39:51;2.60;;;0.80;;
71368;SDS011;59175;53.214;5.728;2022-09-09T15:42:16;4.97;;;1.10;;
71368;SDS011;59175;53.214;5.728;2022-09-09T15:44:42;7.23;;;1.37;;
71368;SDS011;59175;53.214;5.728;2022-09-09T15:47:07;4.22;;;1.40;;
71368;SDS011;59175;53.214;5.728;2022-09-09T15:49:33;4.77;;;1.33;;
71368;SDS011;59175;53.214;5.728;2022-09-09T15:51:59;3.35;;;1.00;;
71368;SDS011;59175;53.214;5.728;2022-09-09T15:54:27;5.20;;;1.43;;
71368;SDS011;59175;53.214;5.728;2022-09-09T15:56:54;5.68;;;1.80;;
71368;SDS011;59175;53.214;5.728;2022-09-09T15:59:20;3.57;;;1.10;;
71368;SDS011;59175;53.214;5.728;2022-09-09T16:01:46;7.43;;;1.33;;
71368;SDS011;59175;53.214;5.728;2022-09-09T16:04:11;4.40;;;1.20;;
71368;SDS011;59175;53.214;5.728;2022-09-09T16:06:37;4.40;;;1.50;;
71368;SDS011;59175;53.214;5.728;2022-09-09T16:09:03;5.90;;;1.40;;
71368;SDS011;59175;53.214;5.728;2022-09-09T16:11:36;3.72;;;1.02;;
71368;SDS011;59175;53.214;5.728;2022-09-09T16:14:01;6.30;;;1.83;;
71368;SDS011;59175;53.214;5.728;2022-09-09T16:16:29;3.90;;;1.50;;
71368;SDS011;59175;53.214;5.728;2022-09-09T16:18:55;5.95;;;1.40;;
71368;SDS011;59175;53.214;5.728;2022-09-09T16:21:25;6.90;;;1.60;;
71368;SDS011;59175;53.214;5.728;2022-09-09T16:23:51;4.22;;;1.45;;
71368;SDS011;59175;53.214;5.728;2022-09-09T16:26:17;3.58;;;1.40;;
71368;SDS011;59175;53.214;5.728;2022-09-09T16:28:42;3.40;;;1.23;;
71368;SDS011;59175;53.214;5.728;2022-09-09T16:31:09;4.97;;;1.37;;
71368;SDS011;59175;53.214;5.728;2022-09-09T16:33:35;2.13;;;0.60;;
71368;SDS011;59175;53.214;5.728;2022-09-09T16:36:11;4.38;;;0.80;;
71368;SDS011;59175;53.214;5.728;2022-09-09T16:38:37;1.38;;;0.40;;
71368;SDS011;59175;53.214;5.728;2022-09-09T16:41:03;1.33;;;0.50;;
71368;SDS011;59175;53.214;5.728;2022-09-09T16:43:29;3.72;;;0.57;;
71368;SDS011;59175;53.214;5.728;2022-09-09T16:45:55;0.90;;;0.30;;
71368;SDS011;59175;53.214;5.728;2022-09-09T16:48:20;1.90;;;0.53;;
71368;SDS011;59175;53.214;5.728;2022-09-09T16:50:45;1.13;;;0.30;;
71368;SDS011;59175;53.214;5.728;2022-09-09T16:53:10;1.00;;;0.30;;